Time;durP1;ratioP1;P1;durP2;ratioP2;P2;SDS_P1;SDS_P2;PMS_P1;PMS_P2;Temp;Humidity;BMP_temperature;BMP_pressure;BME280_temperature;BME280_humidity;BME280_pressure;Samples;Min_cycle;Max_cycle;Signal;HPM_P1;HPM_P2
2022/06/20 00:01:28;;;;;;;;;2.00;2.00;;;;;;;;5092767;27;46652;-73
2022/06/20 00:03:54;;;;;;;;;4.33;3.33;;;;;;;;5093668;27;45477;-73
2022/06/20 00:06:21;;;;;;;;;3.33;3.33;;;;;;;;5094530;27;45313;-73
2022/06/20 00:08:49;;;;;;;;;2.67;2.67;;;;;;;;5094127;27;45435;-74
2022/06/20 00:11:15;;;;;;;;;3.33;3.33;;;;;;;;5093239;27;47326;-73
2022/06/20 00:13:43;;;;;;;;;4.00;2.00;;;;;;;;5092947;27;45579;-74
2022/06/20 00:16:11;;;;;;;;;4.33;3.33;;;;;;;;5091687;27;45369;-73
2022/06/20 00:18:37;;;;;;;;;3.00;3.00;;;;;;;;5086107;27;45514;-73
2022/06/20 00:21:02;;;;;;;;;2.67;2.67;;;;;;;;5094987;27;46145;-73
2022/06/20 00:23:27;;;;;;;;;2.33;2.33;;;;;;;;5091660;27;45398;-73
2022/06/20 00:25:52;;;;;;;;;4.00;2.67;;;;;;;;5093291;27;45246;-73
2022/06/20 00:28:18;;;;;;;;;3.33;2.67;;;;;;;;5093729;27;45519;-73
2022/06/20 00:30:43;;;;;;;;;2.00;2.00;;;;;;;;5091821;27;45459;-73
2022/06/20 00:33:10;;;;;;;;;3.00;3.00;;;;;;;;5095555;27;45370;-74
2022/06/20 00:35:36;;;;;;;;;2.00;2.00;;;;;;;;5092273;27;45377;-73
2022/06/20 00:38:02;;;;;;;;;5.00;2.33;;;;;;;;5091862;27;45406;-73
2022/06/20 00:40:32;;;;;;;;;3.00;3.00;;;;;;;;5091161;27;46111;-73
2022/06/20 00:42:57;;;;;;;;;2.00;2.00;;;;;;;;5091657;27;45243;-73
2022/06/20 00:45:23;;;;;;;;;3.00;3.00;;;;;;;;5094441;27;45576;-74
2022/06/20 00:47:50;;;;;;;;;2.00;2.00;;;;;;;;5097988;27;45353;-73
2022/06/20 00:50:18;;;;;;;;;2.67;2.67;;;;;;;;5097852;27;46304;-74
2022/06/20 00:52:45;;;;;;;;;2.67;2.67;;;;;;;;5095662;27;45484;-73
2022/06/20 00:55:13;;;;;;;;;3.00;3.00;;;;;;;;5093740;27;45455;-73
2022/06/20 00:57:42;;;;;;;;;2.00;2.00;;;;;;;;5097804;27;45476;-73
2022/06/20 01:00:08;;;;;;;;;3.00;2.00;;;;;;;;5098135;27;47024;-73
2022/06/20 01:02:35;;;;;;;;;4.00;3.00;;;;;;;;5097086;27;45465;-73
2022/06/20 01:05:02;;;;;;;;;2.00;2.00;;;;;;;;5095480;27;45360;-74
2022/06/20 01:07:48;;;;;;;;;2.00;2.00;;;;;;;;5096076;27;46349;-74
2022/06/20 01:10:15;;;;;;;;;3.00;2.00;;;;;;;;5043230;28;46426;-74
2022/06/20 01:12:46;;;;;;;;;2.00;2.00;;;;;;;;5054754;28;45554;-73
2022/06/20 01:15:19;;;;;;;;;2.00;2.00;;;;;;;;5055329;28;45400;-73
2022/06/20 01:17:44;;;;;;;;;2.00;2.00;;;;;;;;5055152;28;45642;-73
2022/06/20 01:20:12;;;;;;;;;2.33;2.33;;;;;;;;5053958;28;47179;-73
2022/06/20 01:22:56;;;;;;;;;3.33;3.33;;;;;;;;5054580;28;45460;-73
2022/06/20 01:25:21;;;;;;;;;3.00;2.67;;;;;;;;5054229;28;46109;-73
2022/06/20 01:27:48;;;;;;;;;2.67;2.67;;;;;;;;5054651;28;45590;-73
2022/06/20 01:30:13;;;;;;;;;3.00;3.00;;;;;;;;5054782;28;46190;-73
2022/06/20 01:32:38;;;;;;;;;2.00;2.00;;;;;;;;5055165;28;45495;-74
2022/06/20 01:35:05;;;;;;;;;2.00;2.00;;;;;;;;5054536;28;45375;-73
2022/06/20 01:37:34;;;;;;;;;3.00;3.00;;;;;;;;5054643;28;45503;-73
2022/06/20 01:40:04;;;;;;;;;3.33;2.67;;;;;;;;5053763;28;47176;-74
2022/06/20 01:42:30;;;;;;;;;3.33;2.00;;;;;;;;5046927;28;45490;-74
2022/06/20 01:44:55;;;;;;;;;3.00;3.00;;;;;;;;5053638;28;45336;-73
2022/06/20 01:47:21;;;;;;;;;1.33;1.33;;;;;;;;5075910;27;45458;-73
2022/06/20 01:49:48;;;;;;;;;3.00;3.00;;;;;;;;5095957;27;45433;-73
2022/06/20 01:52:32;;;;;;;;;2.00;2.00;;;;;;;;5095656;27;45503;-73
2022/06/20 01:55:04;;;;;;;;;3.00;3.00;;;;;;;;5093261;27;45385;-73
2022/06/20 01:57:29;;;;;;;;;2.33;2.33;;;;;;;;5096703;27;45538;-74
2022/06/20 02:00:27;;;;;;;;;1.33;1.33;;;;;;;;5096612;27;45552;-73
2022/06/20 02:02:57;;;;;;;;;2.00;2.00;;;;;;;;5032483;28;45473;-73
2022/06/20 02:05:25;;;;;;;;;2.00;2.00;;;;;;;;5025464;28;45554;-73
2022/06/20 02:07:51;;;;;;;;;2.00;2.00;;;;;;;;5028155;28;45499;-73
2022/06/20 02:10:35;;;;;;;;;3.00;3.00;;;;;;;;5026015;28;46234;-73
2022/06/20 02:13:01;;;;;;;;;1.33;1.33;;;;;;;;5025258;28;45392;-73
2022/06/20 02:15:27;;;;;;;;;2.00;2.00;;;;;;;;5021565;28;45512;-73
2022/06/20 02:17:54;;;;;;;;;3.00;1.33;;;;;;;;5028535;28;45492;-73
2022/06/20 02:20:28;;;;;;;;;2.67;2.67;;;;;;;;5023069;28;46456;-74
2022/06/20 02:22:53;;;;;;;;;2.00;2.00;;;;;;;;5021926;28;45393;-73
2022/06/20 02:25:21;;;;;;;;;3.00;3.00;;;;;;;;5026021;28;45325;-74
2022/06/20 02:27:48;;;;;;;;;4.67;3.00;;;;;;;;5023887;28;45971;-73
2022/06/20 02:30:14;;;;;;;;;2.33;2.33;;;;;;;;5018560;28;47304;-73
2022/06/20 02:32:41;;;;;;;;;2.00;2.00;;;;;;;;5027303;28;45417;-73
2022/06/20 02:35:08;;;;;;;;;2.00;2.00;;;;;;;;5022790;28;45383;-73
2022/06/20 02:37:35;;;;;;;;;2.00;2.00;;;;;;;;5034071;27;45709;-74
2022/06/20 02:40:02;;;;;;;;;2.67;2.67;;;;;;;;5091453;27;47065;-73
2022/06/20 02:42:32;;;;;;;;;2.00;2.00;;;;;;;;5094962;27;45513;-73
2022/06/20 02:44:57;;;;;;;;;2.33;2.33;;;;;;;;5097412;27;45422;-73
2022/06/20 02:47:24;;;;;;;;;3.33;2.67;;;;;;;;5094688;27;45468;-73
2022/06/20 02:49:51;;;;;;;;;2.00;2.00;;;;;;;;5094791;27;46153;-74
2022/06/20 02:52:20;;;;;;;;;2.00;2.00;;;;;;;;5094303;27;45408;-73
2022/06/20 02:54:46;;;;;;;;;3.00;3.00;;;;;;;;5095062;27;45294;-73
2022/06/20 02:57:14;;;;;;;;;2.33;2.00;;;;;;;;5096308;27;45314;-73
2022/06/20 02:59:48;;;;;;;;;2.00;2.00;;;;;;;;5095573;27;46374;-74
2022/06/20 03:02:16;;;;;;;;;2.00;2.00;;;;;;;;5093276;27;45459;-73
2022/06/20 03:04:44;;;;;;;;;2.00;2.00;;;;;;;;5095930;27;45354;-74
2022/06/20 03:07:13;;;;;;;;;2.00;2.00;;;;;;;;5094955;27;45593;-73
2022/06/20 03:09:40;;;;;;;;;5.00;2.33;;;;;;;;5088697;27;46110;-73
2022/06/20 03:12:06;;;;;;;;;2.00;2.00;;;;;;;;5096774;27;45429;-73
2022/06/20 03:14:36;;;;;;;;;2.67;2.33;;;;;;;;5093412;27;45464;-73
2022/06/20 03:17:03;;;;;;;;;2.67;2.00;;;;;;;;5094089;27;45483;-73
2022/06/20 03:19:31;;;;;;;;;2.00;2.00;;;;;;;;5092531;27;46289;-72
2022/06/20 03:21:57;;;;;;;;;2.67;2.00;;;;;;;;5095182;27;45349;-73
2022/06/20 03:24:24;;;;;;;;;3.00;1.00;;;;;;;;5093208;27;45306;-74
2022/06/20 03:26:51;;;;;;;;;1.00;1.00;;;;;;;;5096777;27;45351;-73
2022/06/20 03:29:17;;;;;;;;;1.00;1.00;;;;;;;;5094485;27;47293;-73
2022/06/20 03:31:42;;;;;;;;;3.00;3.00;;;;;;;;5094042;27;45318;-74
2022/06/20 03:34:08;;;;;;;;;3.00;3.00;;;;;;;;5093901;27;45433;-73
2022/06/20 03:36:34;;;;;;;;;2.00;2.00;;;;;;;;5094142;27;45404;-73
2022/06/20 03:38:59;;;;;;;;;3.67;3.00;;;;;;;;5096224;27;47042;-73
2022/06/20 03:41:26;;;;;;;;;1.00;1.00;;;;;;;;5093943;27;45287;-74
2022/06/20 03:43:57;;;;;;;;;2.00;2.00;;;;;;;;5094633;27;45447;-73
2022/06/20 03:46:26;;;;;;;;;2.67;2.00;;;;;;;;5093972;27;45471;-74
2022/06/20 03:48:58;;;;;;;;;5.33;2.00;;;;;;;;5092199;27;45707;-73
2022/06/20 03:51:27;;;;;;;;;2.00;1.00;;;;;;;;5094013;27;45461;-73
2022/06/20 03:54:08;;;;;;;;;3.00;1.67;;;;;;;;5094610;27;45438;-73
2022/06/20 03:56:42;;;;;;;;;2.00;2.00;;;;;;;;5094024;27;45461;-73
2022/06/20 03:59:12;;;;;;;;;3.00;3.00;;;;;;;;5093296;27;45405;-73
2022/06/20 04:01:48;;;;;;;;;2.00;2.00;;;;;;;;5091532;27;45328;-73
2022/06/20 04:04:36;;;;;;;;;1.00;1.00;;;;;;;;5094472;27;45480;-73
2022/06/20 04:07:03;;;;;;;;;4.00;2.67;;;;;;;;5091217;27;48286;-74
2022/06/20 04:12:26;;;;;;;;;1.33;1.33;;;;;;;;5091419;27;45346;-73
2022/06/20 04:14:59;;;;;;;;;2.67;2.00;;;;;;;;5094745;27;45403;-73
2022/06/20 04:20:26;;;;;;;;;3.00;3.00;;;;;;;;5092341;27;49210;-74
2022/06/20 04:22:53;;;;;;;;;1.00;1.00;;;;;;;;5092563;27;45424;-73
2022/06/20 04:25:18;;;;;;;;;1.67;1.67;;;;;;;;5093520;27;45473;-74
2022/06/20 04:28:06;;;;;;;;;2.33;2.33;;;;;;;;5094542;27;45299;-74
2022/06/20 04:30:55;;;;;;;;;1.33;1.33;;;;;;;;5088311;27;46003;-73
2022/06/20 04:33:26;;;;;;;;;2.00;2.00;;;;;;;;5078621;27;45637;-74
2022/06/20 04:36:04;;;;;;;;;2.00;2.00;;;;;;;;5094262;27;45412;-73
2022/06/20 04:38:32;;;;;;;;;3.33;2.00;;;;;;;;5091379;27;45367;-74
2022/06/20 04:41:04;;;;;;;;;1.00;1.00;;;;;;;;5093957;27;46213;-73
2022/06/20 04:43:33;;;;;;;;;1.00;1.00;;;;;;;;5093418;27;45413;-74
2022/06/20 04:46:03;;;;;;;;;2.33;2.33;;;;;;;;5091074;27;45391;-73
2022/06/20 04:48:29;;;;;;;;;3.33;2.00;;;;;;;;5092781;27;45606;-73
2022/06/20 04:50:56;;;;;;;;;2.00;2.00;;;;;;;;5095132;27;47183;-75
2022/06/20 04:53:23;;;;;;;;;1.00;1.00;;;;;;;;5093252;27;45457;-74
2022/06/20 04:55:49;;;;;;;;;2.00;2.00;;;;;;;;5092929;27;45431;-73
2022/06/20 04:58:17;;;;;;;;;4.00;1.00;;;;;;;;5087260;27;45496;-73
2022/06/20 05:00:43;;;;;;;;;1.00;1.00;;;;;;;;5094369;27;45389;-73
2022/06/20 05:03:12;;;;;;;;;2.00;2.00;;;;;;;;5093211;27;45756;-72
2022/06/20 05:05:40;;;;;;;;;2.00;2.00;;;;;;;;5093239;27;45582;-73
2022/06/20 05:08:07;;;;;;;;;1.00;1.00;;;;;;;;5092728;27;45423;-74
2022/06/20 05:10:47;;;;;;;;;1.33;1.00;;;;;;;;5093052;27;47152;-73
2022/06/20 05:13:22;;;;;;;;;2.00;2.00;;;;;;;;5091304;27;45619;-73
2022/06/20 05:15:48;;;;;;;;;1.00;1.00;;;;;;;;5090903;27;45554;-73
2022/06/20 05:18:20;;;;;;;;;1.67;1.67;;;;;;;;5087198;27;45477;-73
2022/06/20 05:20:46;;;;;;;;;2.00;2.00;;;;;;;;5110306;27;46321;-73
2022/06/20 05:23:14;;;;;;;;;2.00;2.00;;;;;;;;5092512;27;45383;-74
2022/06/20 05:25:40;;;;;;;;;3.00;1.00;;;;;;;;5092676;27;45349;-74
2022/06/20 05:28:10;;;;;;;;;1.67;1.33;;;;;;;;5092708;27;45371;-73
2022/06/20 05:30:36;;;;;;;;;2.00;2.00;;;;;;;;5085971;27;46096;-73
2022/06/20 05:33:14;;;;;;;;;1.00;1.00;;;;;;;;5094965;27;45385;-73
2022/06/20 05:35:42;;;;;;;;;1.00;1.00;;;;;;;;5096765;27;45370;-73
2022/06/20 05:38:24;;;;;;;;;1.33;1.33;;;;;;;;5097230;27;45472;-73
2022/06/20 05:40:51;;;;;;;;;2.00;2.00;;;;;;;;5096060;27;46077;-73
2022/06/20 05:43:20;;;;;;;;;1.00;1.00;;;;;;;;5095696;27;45528;-73
2022/06/20 05:45:52;;;;;;;;;2.00;2.00;;;;;;;;5095129;27;45595;-73
2022/06/20 05:48:19;;;;;;;;;4.00;1.00;;;;;;;;5096744;27;45413;-76
2022/06/20 05:50:53;;;;;;;;;1.00;1.00;;;;;;;;5097535;27;45412;-74
2022/06/20 05:53:24;;;;;;;;;2.67;2.67;;;;;;;;5096205;27;45279;-76
2022/06/20 05:55:50;;;;;;;;;1.33;1.33;;;;;;;;5095756;27;45356;-73
2022/06/20 05:58:18;;;;;;;;;2.67;2.67;;;;;;;;5095971;27;45417;-72
2022/06/20 06:00:44;;;;;;;;;2.00;1.00;;;;;;;;5091945;27;46267;-73
2022/06/20 06:03:15;;;;;;;;;1.00;1.00;;;;;;;;5096279;27;45364;-73
2022/06/20 06:05:41;;;;;;;;;2.00;2.00;;;;;;;;5096844;27;45570;-73
2022/06/20 06:08:13;;;;;;;;;1.33;1.33;;;;;;;;5094580;27;45442;-73
2022/06/20 06:10:52;;;;;;;;;1.67;1.67;;;;;;;;5099500;27;47212;-73
2022/06/20 06:13:41;;;;;;;;;1.33;1.33;;;;;;;;5097662;27;50941;-71
2022/06/20 06:19:07;;;;;;;;;1.00;1.00;;;;;;;;5092384;27;45464;-72
2022/06/20 06:21:33;;;;;;;;;3.33;2.00;;;;;;;;5092274;27;47264;-72
2022/06/20 06:23:58;;;;;;;;;3.00;2.33;;;;;;;;5096829;27;45274;-71
2022/06/20 06:26:23;;;;;;;;;1.00;1.00;;;;;;;;5094924;27;45362;-72
2022/06/20 06:28:50;;;;;;;;;2.33;2.33;;;;;;;;5095130;27;45505;-74
2022/06/20 06:31:21;;;;;;;;;2.67;2.00;;;;;;;;5082655;27;45533;-72
2022/06/20 06:33:53;;;;;;;;;2.00;2.00;;;;;;;;5093610;27;45467;-72
2022/06/20 06:36:21;;;;;;;;;1.33;1.33;;;;;;;;5096411;27;45409;-77
2022/06/20 06:38:53;;;;;;;;;2.33;2.00;;;;;;;;5095817;27;45356;-77
2022/06/20 06:41:28;;;;;;;;;1.67;1.67;;;;;;;;5095289;27;47194;-77
2022/06/20 06:43:54;;;;;;;;;2.67;1.00;;;;;;;;5091984;27;45488;-73
2022/06/20 06:46:25;;;;;;;;;3.67;1.00;;;;;;;;5093272;27;45598;-74
2022/06/20 06:48:50;;;;;;;;;1.33;1.00;;;;;;;;5095660;27;45432;-74
2022/06/20 06:51:19;;;;;;;;;1.67;1.00;;;;;;;;5095866;27;47090;-74
2022/06/20 06:53:50;;;;;;;;;1.00;1.00;;;;;;;;5094391;27;45462;-73
2022/06/20 06:56:19;;;;;;;;;1.00;1.00;;;;;;;;5094755;27;45565;-74
2022/06/20 06:59:00;;;;;;;;;1.67;1.67;;;;;;;;5094846;27;45356;-73
2022/06/20 07:01:39;;;;;;;;;2.00;1.00;;;;;;;;5084921;27;46440;-74
2022/06/20 07:04:17;;;;;;;;;1.00;1.00;;;;;;;;5093685;27;45449;-74
2022/06/20 07:06:44;;;;;;;;;1.33;1.00;;;;;;;;5083197;27;45472;-73
2022/06/20 07:09:19;;;;;;;;;1.00;1.00;;;;;;;;5096727;27;45754;-74
2022/06/20 07:11:58;;;;;;;;;1.33;1.00;;;;;;;;5095865;27;46117;-74
2022/06/20 07:14:23;;;;;;;;;1.33;1.00;;;;;;;;5093373;27;45586;-74
2022/06/20 07:16:56;;;;;;;;;5.00;3.33;;;;;;;;5094235;27;45510;-74
2022/06/20 07:19:24;;;;;;;;;2.50;1.00;;;;;;;;5094255;27;45350;-74
2022/06/20 07:21:49;;;;;;;;;3.00;1.00;;;;;;;;5093722;27;46226;-74
2022/06/20 07:24:17;;;;;;;;;4.00;1.00;;;;;;;;5095670;27;45321;-73
2022/06/20 07:26:46;;;;;;;;;0.00;0.00;;;;;;;;5095619;27;45338;-74
2022/06/20 07:29:16;;;;;;;;;1.00;1.00;;;;;;;;5094027;27;45764;-74
2022/06/20 07:31:53;;;;;;;;;0.67;0.67;;;;;;;;5094324;27;46171;-74
2022/06/20 07:34:24;;;;;;;;;1.00;1.00;;;;;;;;5092335;27;45603;-74
2022/06/20 07:36:51;;;;;;;;;3.00;2.00;;;;;;;;5093167;27;45587;-74
2022/06/20 07:39:34;;;;;;;;;1.33;1.00;;;;;;;;5095346;27;45408;-74
2022/06/20 07:42:12;;;;;;;;;1.00;1.00;;;;;;;;5095288;27;45389;-73
2022/06/20 07:44:37;;;;;;;;;1.00;1.00;;;;;;;;5093543;27;45414;-74
2022/06/20 07:47:13;;;;;;;;;1.33;1.00;;;;;;;;5094167;27;45381;-74
2022/06/20 07:49:42;;;;;;;;;2.00;1.00;;;;;;;;5092227;27;46724;-74
2022/06/20 07:52:23;;;;;;;;;1.00;1.00;;;;;;;;5094585;27;47261;-74
2022/06/20 07:54:51;;;;;;;;;2.67;2.67;;;;;;;;5087255;27;45455;-74
2022/06/20 07:57:23;;;;;;;;;1.00;1.00;;;;;;;;5093907;27;45471;-74
2022/06/20 07:59:53;;;;;;;;;0.33;0.33;;;;;;;;5095912;27;45532;-74
2022/06/20 08:02:39;;;;;;;;;1.00;1.00;;;;;;;;5093557;27;47424;-73
2022/06/20 08:05:06;;;;;;;;;1.33;1.00;;;;;;;;5093271;27;45691;-74
2022/06/20 08:07:39;;;;;;;;;1.00;1.00;;;;;;;;5092955;27;45485;-74
2022/06/20 08:10:24;;;;;;;;;3.67;1.33;;;;;;;;5093622;27;47282;-74
2022/06/20 08:12:56;;;;;;;;;0.33;0.33;;;;;;;;5081816;27;46028;-73
2022/06/20 08:15:23;;;;;;;;;0.67;0.67;;;;;;;;5093824;27;45337;-74
2022/06/20 08:17:48;;;;;;;;;0.33;0.33;;;;;;;;5095306;27;45480;-74
2022/06/20 08:20:14;;;;;;;;;3.00;1.00;;;;;;;;5092863;27;45431;-74
2022/06/20 08:22:49;;;;;;;;;0.67;0.67;;;;;;;;5091840;27;46386;-73
2022/06/20 08:25:18;;;;;;;;;1.33;1.33;;;;;;;;5092830;27;45471;-73
2022/06/20 08:27:45;;;;;;;;;1.00;1.00;;;;;;;;5093697;27;45544;-73
2022/06/20 08:30:11;;;;;;;;;0.67;0.67;;;;;;;;5095476;27;45376;-74
2022/06/20 08:32:46;;;;;;;;;1.00;1.00;;;;;;;;5094781;27;47114;-73
2022/06/20 08:35:17;;;;;;;;;1.33;1.33;;;;;;;;5092111;27;45412;-74
2022/06/20 08:38:14;;;;;;;;;1.00;1.00;;;;;;;;5091329;27;45495;-74
2022/06/20 08:40:51;;;;;;;;;2.33;2.00;;;;;;;;5048288;28;45572;-74
2022/06/20 08:43:35;;;;;;;;;2.00;0.67;;;;;;;;5050267;28;46334;-74
2022/06/20 08:46:00;;;;;;;;;3.00;0.00;;;;;;;;5052148;28;45421;-73
2022/06/20 08:48:49;;;;;;;;;0.00;0.00;;;;;;;;5046378;28;45630;-74
2022/06/20 08:51:35;;;;;;;;;1.00;1.00;;;;;;;;5051987;28;45357;-74
2022/06/20 08:54:15;;;;;;;;;1.00;1.00;;;;;;;;5051897;28;46167;-73
2022/06/20 08:56:49;;;;;;;;;1.67;0.33;;;;;;;;5049782;28;45448;-74
2022/06/20 08:59:14;;;;;;;;;1.00;0.00;;;;;;;;5050767;28;45738;-74
2022/06/20 09:01:40;;;;;;;;;0.33;0.33;;;;;;;;5034467;28;45358;-74
2022/06/20 09:04:26;;;;;;;;;3.00;0.33;;;;;;;;5048857;28;46675;-74
2022/06/20 09:07:00;;;;;;;;;0.00;0.00;;;;;;;;5049974;28;45360;-74
2022/06/20 09:09:35;;;;;;;;;0.67;0.67;;;;;;;;5054093;28;45740;-74
2022/06/20 09:12:00;;;;;;;;;0.00;0.00;;;;;;;;5055152;28;45508;-74
2022/06/20 09:14:37;;;;;;;;;0.33;0.33;;;;;;;;5054533;28;46443;-74
2022/06/20 09:17:08;;;;;;;;;0.00;0.00;;;;;;;;5086391;27;45564;-74
2022/06/20 09:19:33;;;;;;;;;1.33;0.00;;;;;;;;5094799;27;45473;-74
2022/06/20 09:22:18;;;;;;;;;0.00;0.00;;;;;;;;5094378;27;46567;-74
2022/06/20 09:24:55;;;;;;;;;1.67;1.67;;;;;;;;5092296;27;46704;-73
2022/06/20 09:27:33;;;;;;;;;0.33;0.33;;;;;;;;5094612;27;45400;-74
2022/06/20 09:30:04;;;;;;;;;2.00;0.00;;;;;;;;5097538;27;45389;-73
2022/06/20 09:32:48;;;;;;;;;1.00;1.00;;;;;;;;5095894;27;45301;-73
2022/06/20 09:35:19;;;;;;;;;2.00;1.00;;;;;;;;5096188;27;45424;-73
2022/06/20 09:37:47;;;;;;;;;3.00;1.67;;;;;;;;5093724;27;45380;-73
2022/06/20 09:40:18;;;;;;;;;2.00;0.33;;;;;;;;5097063;27;45394;-74
2022/06/20 09:43:02;;;;;;;;;1.00;1.00;;;;;;;;5095980;27;45444;-73
2022/06/20 09:45:36;;;;;;;;;0.67;0.33;;;;;;;;5094408;27;48518;-74
2022/06/20 09:48:01;;;;;;;;;0.33;0.33;;;;;;;;5098166;27;45374;-74
2022/06/20 09:50:33;;;;;;;;;1.00;1.00;;;;;;;;5096378;27;45588;-74
2022/06/20 09:53:07;;;;;;;;;2.00;1.00;;;;;;;;5095518;27;45433;-73
2022/06/20 09:55:42;;;;;;;;;2.00;0.00;;;;;;;;5094105;27;45477;-74
2022/06/20 09:58:16;;;;;;;;;2.00;1.33;;;;;;;;5094916;27;45379;-74
2022/06/20 10:00:49;;;;;;;;;1.33;0.00;;;;;;;;5090554;27;45325;-73
2022/06/20 10:03:33;;;;;;;;;1.00;1.00;;;;;;;;5097215;27;45449;-74
2022/06/20 10:06:06;;;;;;;;;0.67;0.67;;;;;;;;5096458;27;45465;-73
2022/06/20 10:08:40;;;;;;;;;2.00;1.00;;;;;;;;5095100;27;45451;-73
2022/06/20 10:11:11;;;;;;;;;0.00;0.00;;;;;;;;5093432;27;45260;-73
2022/06/20 10:13:48;;;;;;;;;0.67;0.67;;;;;;;;5095535;27;45338;-73
2022/06/20 10:16:23;;;;;;;;;3.33;1.00;;;;;;;;5095442;27;47074;-73
2022/06/20 10:19:01;;;;;;;;;4.00;1.00;;;;;;;;5095426;27;45453;-74
2022/06/20 10:21:39;;;;;;;;;0.33;0.33;;;;;;;;5095439;27;46353;-74
2022/06/20 10:24:18;;;;;;;;;1.33;0.67;;;;;;;;5097837;27;45286;-73
2022/06/20 10:26:46;;;;;;;;;0.00;0.00;;;;;;;;5096213;27;46431;-74
2022/06/20 10:29:29;;;;;;;;;1.00;1.00;;;;;;;;5096337;27;45504;-73
2022/06/20 10:32:06;;;;;;;;;2.00;1.00;;;;;;;;5094706;27;45469;-74
2022/06/20 10:34:40;;;;;;;;;0.00;0.00;;;;;;;;5095523;27;45312;-73
2022/06/20 10:37:08;;;;;;;;;0.00;0.00;;;;;;;;5094884;27;47025;-74
2022/06/20 10:39:52;;;;;;;;;1.67;0.67;;;;;;;;5094577;27;45483;-74
2022/06/20 10:42:20;;;;;;;;;0.00;0.00;;;;;;;;5093480;27;45473;-74
2022/06/20 10:44:56;;;;;;;;;1.33;1.33;;;;;;;;5095014;27;45287;-73
2022/06/20 10:47:27;;;;;;;;;1.00;1.00;;;;;;;;5094865;27;46206;-74
2022/06/20 10:49:56;;;;;;;;;0.00;0.00;;;;;;;;5095861;27;45595;-74
2022/06/20 10:52:41;;;;;;;;;0.00;0.00;;;;;;;;5094491;27;45453;-74
2022/06/20 10:55:19;;;;;;;;;1.00;1.00;;;;;;;;5094977;27;45341;-74
2022/06/20 10:58:06;;;;;;;;;1.00;1.00;;;;;;;;5091891;27;45318;-73
2022/06/20 11:00:35;;;;;;;;;1.00;1.00;;;;;;;;5093737;27;45469;-74
2022/06/20 11:03:06;;;;;;;;;0.33;0.33;;;;;;;;5096369;27;45377;-74
2022/06/20 11:05:37;;;;;;;;;1.00;0.00;;;;;;;;5092974;27;45365;-73
2022/06/20 11:08:02;;;;;;;;;1.00;1.00;;;;;;;;5095243;27;46354;-74
2022/06/20 11:10:46;;;;;;;;;1.00;1.00;;;;;;;;5096265;27;45507;-73
2022/06/20 11:13:25;;;;;;;;;0.00;0.00;;;;;;;;5094946;27;45390;-74
2022/06/20 11:16:09;;;;;;;;;0.00;0.00;;;;;;;;5080509;27;45563;-74
2022/06/20 11:18:52;;;;;;;;;1.33;0.33;;;;;;;;5093803;27;46795;-74
2022/06/20 11:21:26;;;;;;;;;2.00;0.00;;;;;;;;5093003;27;45346;-75
2022/06/20 11:24:10;;;;;;;;;0.00;0.00;;;;;;;;5095619;27;45544;-74
2022/06/20 11:26:40;;;;;;;;;1.33;0.33;;;;;;;;5093289;27;45390;-73
2022/06/20 11:29:12;;;;;;;;;1.00;1.00;;;;;;;;5093837;27;46532;-73
2022/06/20 11:31:43;;;;;;;;;0.00;0.00;;;;;;;;5092350;27;45361;-73
2022/06/20 11:34:17;;;;;;;;;2.00;0.67;;;;;;;;5094175;27;45616;-75
2022/06/20 11:37:01;;;;;;;;;0.33;0.33;;;;;;;;5084671;27;45449;-75
2022/06/20 11:39:29;;;;;;;;;1.33;1.33;;;;;;;;5094877;27;45568;-75
2022/06/20 11:42:04;;;;;;;;;1.00;1.00;;;;;;;;5094774;27;45479;-75
2022/06/20 11:44:48;;;;;;;;;0.00;0.00;;;;;;;;5092720;27;45465;-75
2022/06/20 11:47:13;;;;;;;;;0.00;0.00;;;;;;;;5091697;27;45428;-75
2022/06/20 11:49:42;;;;;;;;;1.00;0.00;;;;;;;;5092731;27;46312;-75
2022/06/20 11:52:15;;;;;;;;;1.00;1.00;;;;;;;;5094334;27;45386;-75
2022/06/20 11:54:53;;;;;;;;;1.00;0.33;;;;;;;;5089005;27;45486;-75
2022/06/20 11:57:36;;;;;;;;;0.00;0.00;;;;;;;;5092295;27;45538;-75
2022/06/20 12:00:03;;;;;;;;;1.00;1.00;;;;;;;;5095333;27;48137;-75
2022/06/20 12:02:47;;;;;;;;;0.33;0.33;;;;;;;;5091703;27;45306;-75
2022/06/20 12:05:15;;;;;;;;;0.00;0.00;;;;;;;;5093511;27;45489;-75
2022/06/20 12:07:49;;;;;;;;;0.00;0.00;;;;;;;;5093712;27;45467;-73
2022/06/20 12:10:29;;;;;;;;;2.00;2.00;;;;;;;;5091926;27;46174;-75
2022/06/20 12:12:54;;;;;;;;;1.33;1.00;;;;;;;;5091770;27;45518;-76
2022/06/20 12:15:28;;;;;;;;;1.00;1.00;;;;;;;;5094909;27;45421;-76
2022/06/20 12:17:54;;;;;;;;;1.00;1.00;;;;;;;;5109589;27;45481;-74
2022/06/20 12:23:20;;;;;;;;;1.00;1.00;;;;;;;;5093561;27;45428;-75
2022/06/20 12:25:52;;;;;;;;;2.00;1.00;;;;;;;;5091763;27;45333;-75
2022/06/20 12:28:20;;;;;;;;;0.00;0.00;;;;;;;;5092016;27;45332;-75
2022/06/20 12:31:05;;;;;;;;;1.00;1.00;;;;;;;;5094745;27;46185;-73
2022/06/20 12:33:33;;;;;;;;;1.00;1.00;;;;;;;;5082191;27;45477;-75
2022/06/20 12:36:01;;;;;;;;;1.00;1.00;;;;;;;;5094768;27;45422;-75
2022/06/20 12:38:46;;;;;;;;;1.33;1.00;;;;;;;;5091149;27;45441;-75
2022/06/20 12:41:14;;;;;;;;;1.33;1.33;;;;;;;;5090355;27;45513;-75
2022/06/20 12:43:49;;;;;;;;;0.33;0.33;;;;;;;;5095541;27;45480;-75
2022/06/20 12:46:17;;;;;;;;;1.00;1.00;;;;;;;;5096357;27;45544;-75
2022/06/20 12:48:52;;;;;;;;;2.67;2.67;;;;;;;;5095451;27;45354;-76
2022/06/20 12:51:30;;;;;;;;;0.00;0.00;;;;;;;;5098310;27;46372;-75
2022/06/20 12:54:14;;;;;;;;;1.00;1.00;;;;;;;;5098727;27;45401;-75
2022/06/20 12:56:45;;;;;;;;;0.00;0.00;;;;;;;;5097240;27;45484;-75
2022/06/20 12:59:28;;;;;;;;;1.33;1.00;;;;;;;;5096196;27;45953;-75
2022/06/20 13:01:54;;;;;;;;;0.67;0.67;;;;;;;;5096053;27;46309;-75
2022/06/20 13:04:28;;;;;;;;;1.00;1.00;;;;;;;;5096295;27;45444;-75
2022/06/20 13:07:00;;;;;;;;;1.00;1.00;;;;;;;;5097028;27;45572;-75
2022/06/20 13:09:36;;;;;;;;;1.00;1.00;;;;;;;;5098360;27;45452;-75
2022/06/20 13:12:02;;;;;;;;;1.00;1.00;;;;;;;;5098503;27;47236;-75
2022/06/20 13:14:43;;;;;;;;;0.00;0.00;;;;;;;;5095456;27;45376;-75
2022/06/20 13:17:27;;;;;;;;;0.00;0.00;;;;;;;;5097228;27;45687;-76
2022/06/20 13:20:04;;;;;;;;;1.00;1.00;;;;;;;;5095816;27;45532;-75
2022/06/20 13:22:32;;;;;;;;;4.00;1.67;;;;;;;;5096122;27;47452;-75
2022/06/20 13:24:58;;;;;;;;;1.00;1.00;;;;;;;;5096488;27;45430;-75
2022/06/20 13:27:41;;;;;;;;;1.00;1.00;;;;;;;;5097009;27;45325;-75
2022/06/20 13:30:20;;;;;;;;;1.00;1.00;;;;;;;;5098118;27;45398;-76
2022/06/20 13:33:00;;;;;;;;;0.00;0.00;;;;;;;;5097755;27;46378;-75
2022/06/20 13:35:25;;;;;;;;;1.00;1.00;;;;;;;;5096303;27;45365;-75
2022/06/20 13:37:53;;;;;;;;;0.67;0.33;;;;;;;;5094164;27;45431;-73
2022/06/20 13:40:34;;;;;;;;;1.00;1.00;;;;;;;;5094040;27;45504;-75
2022/06/20 13:43:12;;;;;;;;;3.00;2.00;;;;;;;;5095769;27;45603;-72
2022/06/20 13:45:49;;;;;;;;;0.00;0.00;;;;;;;;5093835;27;45351;-73
2022/06/20 13:48:22;;;;;;;;;1.00;1.00;;;;;;;;5095671;27;45335;-75
2022/06/20 13:51:06;;;;;;;;;1.00;1.00;;;;;;;;5097873;27;45434;-75
2022/06/20 13:53:43;;;;;;;;;1.00;1.00;;;;;;;;5095409;27;46909;-76
2022/06/20 13:56:21;;;;;;;;;1.33;1.33;;;;;;;;5093243;27;45449;-75
2022/06/20 13:58:48;;;;;;;;;1.00;1.00;;;;;;;;5097362;27;45459;-75
2022/06/20 14:01:15;;;;;;;;;1.00;1.00;;;;;;;;5093903;27;45540;-76
2022/06/20 14:03:46;;;;;;;;;1.00;1.00;;;;;;;;5093700;27;47145;-75
2022/06/20 14:06:14;;;;;;;;;2.00;1.00;;;;;;;;5093769;27;45311;-75
2022/06/20 14:08:47;;;;;;;;;1.00;1.00;;;;;;;;5096498;27;45563;-75
2022/06/20 14:11:32;;;;;;;;;0.00;0.00;;;;;;;;5095658;27;45381;-75
2022/06/20 14:13:58;;;;;;;;;2.67;2.67;;;;;;;;5094993;27;45604;-75
2022/06/20 14:16:35;;;;;;;;;3.33;2.00;;;;;;;;5095599;27;48009;-75
2022/06/20 14:19:07;;;;;;;;;1.00;1.00;;;;;;;;5095575;27;45359;-75
2022/06/20 14:21:53;;;;;;;;;1.67;1.00;;;;;;;;5096602;27;45660;-75
2022/06/20 14:24:18;;;;;;;;;1.00;1.00;;;;;;;;5093806;27;47378;-75
2022/06/20 14:26:44;;;;;;;;;2.00;2.00;;;;;;;;5096451;27;45644;-75
2022/06/20 14:29:18;;;;;;;;;2.00;2.00;;;;;;;;5095517;27;45372;-75
2022/06/20 14:31:58;;;;;;;;;2.67;1.33;;;;;;;;5096946;27;45458;-75
2022/06/20 14:34:29;;;;;;;;;1.33;1.33;;;;;;;;5095376;27;46905;-75
2022/06/20 14:37:00;;;;;;;;;1.67;1.67;;;;;;;;5095428;27;45361;-76
2022/06/20 14:39:31;;;;;;;;;1.00;1.00;;;;;;;;5096079;27;45426;-75
2022/06/20 14:42:05;;;;;;;;;1.33;1.33;;;;;;;;5095426;27;45484;-75
2022/06/20 14:44:41;;;;;;;;;2.00;2.00;;;;;;;;5093203;27;46053;-76
2022/06/20 14:47:25;;;;;;;;;3.00;3.00;;;;;;;;5094993;27;45449;-75
2022/06/20 14:49:53;;;;;;;;;1.00;1.00;;;;;;;;5095189;27;45593;-75
2022/06/20 14:52:30;;;;;;;;;3.00;1.67;;;;;;;;5094617;27;45545;-75
2022/06/20 14:54:58;;;;;;;;;2.00;2.00;;;;;;;;5094660;27;46369;-75
2022/06/20 14:57:26;;;;;;;;;1.33;1.33;;;;;;;;5096075;27;45348;-75
2022/06/20 15:00:00;;;;;;;;;2.00;2.00;;;;;;;;5097224;27;45540;-75
2022/06/20 15:02:33;;;;;;;;;3.00;2.00;;;;;;;;5093094;27;45307;-75
2022/06/20 15:05:03;;;;;;;;;1.67;1.67;;;;;;;;5092859;27;46441;-75
2022/06/20 15:07:32;;;;;;;;;2.00;2.00;;;;;;;;5094203;27;45375;-75
2022/06/20 15:10:09;;;;;;;;;2.00;2.00;;;;;;;;5094859;27;45473;-75
2022/06/20 15:12:34;;;;;;;;;2.33;2.00;;;;;;;;5094296;27;45373;-75
2022/06/20 15:14:59;;;;;;;;;2.00;2.00;;;;;;;;5095318;27;46040;-75
2022/06/20 15:17:27;;;;;;;;;2.50;2.50;;;;;;;;5095038;27;45377;-75
2022/06/20 15:20:13;;;;;;;;;2.00;2.00;;;;;;;;5094059;27;45648;-75
2022/06/20 15:22:44;;;;;;;;;2.00;2.00;;;;;;;;5093062;27;45483;-76